Time;durP1;ratioP1;P1;durP2;ratioP2;P2;SDS_P1;SDS_P2;PMS_P1;PMS_P2;Temp;Humidity;BMP_temperature;BMP_pressure;BME280_temperature;BME280_humidity;BME280_pressure;Samples;Min_cycle;Max_cycle;Signal;HPM_P1;HPM_P2
2022/10/07 00:01:32;;;;;;;8.30;1.90;;;;;;;10.16;100.00;102568.88;5035277;28;20209;-77
2022/10/07 00:03:57;;;;;;;9.73;2.17;;;;;;;10.05;100.00;102550.31;5036124;28;20196;-76
2022/10/07 00:06:22;;;;;;;7.13;1.77;;;;;;;10.71;100.00;102653.72;5029860;28;20187;-77
2022/10/07 00:08:50;;;;;;;5.97;1.70;;;;;;;10.11;100.00;102535.47;5031746;28;20184;-76
2022/10/07 00:11:23;;;;;;;11.50;2.43;;;;;;;10.78;100.00;102641.34;5017976;28;20216;-76
2022/10/07 00:13:52;;;;;;;18.03;2.30;;;;;;;10.34;100.00;102600.22;5028175;28;20423;-76
2022/10/07 00:16:23;;;;;;;5.40;1.87;;;;;;;10.60;100.00;102660.16;5028529;28;20940;-76
2022/10/07 00:18:49;;;;;;;10.50;2.57;;;;;;;10.03;100.00;102565.72;5029436;28;20461;-76
2022/10/07 00:21:17;;;;;;;9.47;1.93;;;;;;;9.76;100.00;102498.78;5033470;28;20823;-77
2022/10/07 00:23:44;;;;;;;9.00;1.60;;;;;;;10.56;100.00;102647.22;5042630;28;20528;-77
2022/10/07 00:26:14;;;;;;;11.67;1.77;;;;;;;10.22;100.00;102572.78;5046623;28;20482;-77
2022/10/07 00:28:40;;;;;;;6.20;2.20;;;;;;;10.61;100.00;102648.41;5043404;28;20438;-77
2022/10/07 00:31:14;;;;;;;8.23;2.30;;;;;;;10.45;100.00;102613.41;5030097;28;20943;-77
2022/10/07 00:33:40;;;;;;;16.57;2.50;;;;;;;10.41;100.00;102617.38;5032238;28;20492;-77
2022/10/07 00:36:07;;;;;;;11.00;2.03;;;;;;;10.31;100.00;102590.66;5027816;28;20557;-76
2022/10/07 00:38:32;;;;;;;7.90;1.87;;;;;;;9.98;100.00;102538.53;5019565;28;20552;-76
2022/10/07 00:40:58;;;;;;;9.00;2.20;;;;;;;10.42;100.00;102621.75;5028753;28;21019;-75
2022/10/07 00:43:30;;;;;;;6.47;2.00;;;;;;;9.65;100.00;102481.94;5028775;28;20253;-76
2022/10/07 00:46:28;;;;;;;10.53;1.90;;;;;;;10.36;100.00;102607.13;5034960;28;20261;-75
2022/10/07 00:48:59;;;;;;;8.60;2.00;;;;;;;10.46;100.00;102631.19;5032487;28;20427;-76
2022/10/07 00:51:25;;;;;;;7.60;2.00;;;;;;;9.55;100.00;102505.28;5031327;28;20433;-75
2022/10/07 00:53:54;;;;;;;8.20;2.07;;;;;;;10.32;100.00;102610.25;5035260;28;21904;-76
2022/10/07 00:56:22;;;;;;;11.13;2.53;;;;;;;9.81;100.00;102523.31;5032635;28;20442;-76
2022/10/07 00:58:48;;;;;;;6.90;2.17;;;;;;;9.83;100.00;102515.94;5030603;28;20841;-76
2022/10/07 01:01:15;;;;;;;8.77;2.10;;;;;;;9.71;100.00;102491.19;5035170;28;20918;-76
2022/10/07 01:03:41;;;;;;;8.40;2.10;;;;;;;10.18;100.00;102584.78;5034149;28;20424;-76
2022/10/07 01:06:07;;;;;;;8.20;2.43;;;;;;;10.53;100.00;102599.19;5032737;28;20526;-75
2022/10/07 01:08:32;;;;;;;13.87;2.90;;;;;;;10.40;100.00;102615.69;5031035;28;20423;-74
2022/10/07 01:11:19;;;;;;;9.97;2.17;;;;;;;10.30;100.00;102591.66;5032999;28;20215;-74
2022/10/07 01:14:02;;;;;;;9.93;2.30;;;;;;;10.38;100.00;102589.00;5028631;28;20196;-74
2022/10/07 01:16:41;;;;;;;9.43;3.50;;;;;;;9.76;100.00;102513.03;5028111;28;20442;-74
2022/10/07 01:19:22;;;;;;;6.27;2.60;;;;;;;10.10;100.00;102580.22;5018791;28;20474;-74
2022/10/07 01:22:06;;;;;;;10.80;2.17;;;;;;;10.17;100.00;102575.91;5030046;28;20947;-74
2022/10/07 01:24:59;;;;;;;10.93;2.90;;;;;;;10.18;100.00;102564.19;5018879;28;20470;-74
2022/10/07 01:27:26;;;;;;;8.27;2.17;;;;;;;10.19;100.00;102565.88;5030002;28;20435;-73
2022/10/07 01:30:02;;;;;;;4.60;1.90;;;;;;;10.09;100.00;102570.47;5027255;28;20501;-74
2022/10/07 01:32:35;;;;;;;6.83;2.50;;;;;;;8.96;100.00;102359.38;5031057;28;20788;-76
2022/10/07 01:35:04;;;;;;;11.03;2.23;;;;;;;9.99;100.00;102540.22;5027025;28;20455;-76
2022/10/07 01:37:34;;;;;;;10.87;3.13;;;;;;;9.51;100.00;102463.72;5036619;28;20872;-77
2022/10/07 01:40:05;;;;;;;10.03;2.37;;;;;;;10.10;100.00;102540.00;5032837;28;20493;-77
2022/10/07 01:42:32;;;;;;;8.97;2.87;;;;;;;10.05;100.00;102533.41;5028776;28;20438;-77
2022/10/07 01:44:58;;;;;;;7.73;2.60;;;;;;;9.54;100.00;102471.44;5024574;28;20525;-76
2022/10/07 01:47:27;;;;;;;8.30;2.53;;;;;;;9.81;100.00;102517.94;5029637;28;20957;-77
2022/10/07 01:49:53;;;;;;;6.27;2.23;;;;;;;9.28;100.00;102423.13;5029941;28;20553;-77
2022/10/07 01:52:34;;;;;;;13.70;3.47;;;;;;;10.04;100.00;102545.97;5024594;28;20441;-77
2022/10/07 01:55:27;;;;;;;8.33;2.87;;;;;;;10.10;100.00;102525.75;5030727;28;20211;-77
2022/10/07 01:58:07;;;;;;;9.90;2.47;;;;;;;10.15;100.00;102518.94;5030527;28;20437;-77
2022/10/07 02:00:40;;;;;;;6.03;2.33;;;;;;;9.19;100.00;102395.44;5027008;28;20480;-78
2022/10/07 02:03:28;;;;;;;6.20;2.60;;;;;;;9.95;100.00;102509.34;5025562;28;20443;-77
2022/10/07 02:06:14;;;;;;;14.93;2.87;;;;;;;9.25;100.00;102416.25;5015627;28;20999;-76
2022/10/07 02:08:53;;;;;;;10.30;2.37;;;;;;;9.80;100.00;102478.72;5031566;28;20435;-76
2022/10/07 02:11:26;;;;;;;6.20;2.53;;;;;;;9.90;100.00;102504.47;5028132;28;20929;-76
2022/10/07 02:13:59;;;;;;;7.63;2.50;;;;;;;9.84;100.00;102490.84;5027101;28;20434;-76
2022/10/07 02:16:28;;;;;;;9.77;3.40;;;;;;;9.87;100.00;102503.94;5027359;28;20434;-75
2022/10/07 02:18:55;;;;;;;8.33;3.30;;;;;;;9.91;100.00;102486.53;5030619;28;20466;-75
2022/10/07 02:21:30;;;;;;;7.90;2.80;;;;;;;9.68;100.00;102465.53;5029402;28;20971;-76
2022/10/07 02:23:58;;;;;;;9.33;4.40;;;;;;;9.92;100.00;102490.88;5029182;28;20438;-77
2022/10/07 02:26:26;;;;;;;7.77;2.53;;;;;;;8.71;100.00;102305.63;5026694;28;20994;-76
2022/10/07 02:28:53;;;;;;;11.13;3.13;;;;;;;9.85;100.00;102508.59;5040871;28;21024;-77
2022/10/07 02:31:23;;;;;;;8.53;2.37;;;;;;;9.18;100.00;102392.91;5027519;28;20559;-77
2022/10/07 02:33:52;;;;;;;8.00;2.60;;;;;;;8.87;100.00;102321.00;5025628;28;20434;-77
2022/10/07 02:36:25;;;;;;;7.33;2.43;;;;;;;9.13;100.00;102361.25;5022252;28;20443;-77
2022/10/07 02:38:51;;;;;;;8.07;2.50;;;;;;;9.77;100.00;102473.66;5029160;28;20461;-77
2022/10/07 02:41:32;;;;;;;9.77;2.87;;;;;;;9.80;100.00;102468.00;5035077;28;20434;-76
2022/10/07 02:44:24;;;;;;;10.73;3.20;;;;;;;8.93;100.00;102325.75;5036613;28;20423;-76
2022/10/07 02:46:54;;;;;;;9.70;2.53;;;;;;;9.84;100.00;102470.22;5035405;28;20434;-77
2022/10/07 02:49:23;;;;;;;7.90;2.83;;;;;;;9.80;100.00;102459.97;5032702;28;20467;-77
2022/10/07 02:51:54;;;;;;;11.57;3.50;;;;;;;9.54;100.00;102409.00;5037193;28;20955;-77
2022/10/07 02:54:26;;;;;;;11.30;3.17;;;;;;;8.78;100.00;102277.25;5033198;28;20446;-75
2022/10/07 02:56:52;;;;;;;8.97;3.93;;;;;;;9.26;100.00;102388.50;5034846;28;20790;-75
2022/10/07 02:59:19;;;;;;;11.57;2.83;;;;;;;9.46;100.00;102412.44;5036144;28;20963;-75
2022/10/07 03:01:49;;;;;;;9.93;2.73;;;;;;;9.79;100.00;102463.66;5035365;28;20512;-76
2022/10/07 03:04:15;;;;;;;11.50;3.30;;;;;;;8.89;100.00;102321.69;5036635;28;20451;-76
2022/10/07 03:06:43;;;;;;;7.57;2.73;;;;;;;9.80;100.00;102458.13;5034986;28;20439;-76
2022/10/07 03:09:10;;;;;;;8.77;2.20;;;;;;;9.76;100.00;102455.91;5035304;28;20183;-76
2022/10/07 03:11:37;;;;;;;11.73;3.73;;;;;;;9.71;100.00;102459.88;5016846;28;20461;-76
2022/10/07 03:14:04;;;;;;;10.80;3.07;;;;;;;8.96;100.00;102348.69;5020840;28;20451;-76
2022/10/07 03:16:30;;;;;;;10.20;3.00;;;;;;;9.64;100.00;102439.22;5015122;28;20477;-75
2022/10/07 03:18:57;;;;;;;7.57;2.60;;;;;;;8.91;100.00;102340.25;5016582;28;20466;-75
2022/10/07 03:21:23;;;;;;;7.20;2.70;;;;;;;8.43;100.00;102245.97;5016794;28;20474;-75
2022/10/07 03:23:51;;;;;;;13.93;2.80;;;;;;;8.57;100.00;102261.50;5006697;28;20441;-75
2022/10/07 03:26:18;;;;;;;6.43;2.50;;;;;;;8.90;100.00;102320.69;5021369;28;20871;-76
2022/10/07 03:28:44;;;;;;;7.83;2.80;;;;;;;9.71;100.00;102443.81;5016607;28;20943;-75
2022/10/07 03:31:11;;;;;;;11.80;3.37;;;;;;;8.64;100.00;102293.81;5031292;28;20435;-77
2022/10/07 03:33:37;;;;;;;15.73;3.50;;;;;;;8.78;100.00;102289.81;5010179;28;20469;-76
2022/10/07 03:36:04;;;;;;;18.43;4.00;;;;;;;9.45;100.00;102410.75;5028021;28;20535;-77
2022/10/07 03:38:30;;;;;;;8.43;3.40;;;;;;;9.39;100.00;102406.00;5013017;28;20216;-76
2022/10/07 03:40:56;;;;;;;11.93;3.57;;;;;;;9.35;100.00;102415.34;5021433;28;20457;-75
2022/10/07 03:43:22;;;;;;;12.13;3.57;;;;;;;8.78;100.00;102344.16;5009407;28;20446;-75
2022/10/07 03:45:51;;;;;;;12.10;3.90;;;;;;;8.52;100.00;102268.28;5027687;28;20215;-75
2022/10/07 03:48:17;;;;;;;10.80;3.10;;;;;;;9.41;100.00;102404.88;5010192;28;21134;-75
2022/10/07 03:50:49;;;;;;;11.47;3.70;;;;;;;9.04;100.00;102357.63;5016942;28;20439;-75
2022/10/07 03:53:15;;;;;;;11.87;3.73;;;;;;;8.81;100.00;102327.78;5040196;28;21009;-77
2022/10/07 03:55:40;;;;;;;14.70;3.73;;;;;;;8.64;100.00;102277.78;5014644;28;20462;-75
2022/10/07 03:58:06;;;;;;;9.30;3.67;;;;;;;9.44;100.00;102401.03;5000520;28;20320;-75
2022/10/07 04:00:31;;;;;;;12.97;2.93;;;;;;;7.13;100.00;102036.84;5008842;28;20200;-74
2022/10/07 04:02:57;;;;;;;10.73;3.90;;;;;;;8.66;100.00;102305.22;5008633;28;20347;-76
2022/10/07 04:05:23;;;;;;;6.13;3.70;;;;;;;8.48;100.00;102291.00;5017120;28;20314;-76
2022/10/07 04:07:49;;;;;;;17.07;4.60;;;;;;;7.90;100.00;102199.38;5023420;28;20193;-74
2022/10/07 04:10:20;;;;;;;12.93;3.93;;;;;;;6.59;100.00;101959.28;5056875;22;20193;-71
2022/10/07 04:12:53;;;;;;;8.20;3.07;;;;;;;6.72;100.00;101977.63;5015596;28;20549;-71
2022/10/07 04:15:27;;;;;;;10.10;3.20;;;;;;;8.73;100.00;102345.59;4986197;28;20483;-72
2022/10/07 04:18:00;;;;;;;11.03;3.57;;;;;;;8.27;100.00;102256.44;5004869;28;20443;-72
2022/10/07 04:20:33;;;;;;;10.30;3.10;;;;;;;7.58;100.00;102151.75;4985741;28;20814;-71
2022/10/07 04:23:02;;;;;;;9.77;3.20;;;;;;;7.21;100.00;102095.69;4986031;28;20463;-71
2022/10/07 04:25:33;;;;;;;12.27;2.90;;;;;;;9.16;100.00;102389.53;4990446;28;20505;-72
2022/10/07 04:28:02;;;;;;;11.23;3.27;;;;;;;9.19;100.00;102394.59;4990609;28;20534;-71
2022/10/07 04:30:33;;;;;;;12.13;3.50;;;;;;;8.96;100.00;102365.56;5009017;28;20436;-72
2022/10/07 04:32:59;;;;;;;16.73;3.90;;;;;;;9.18;100.00;102383.03;5003947;28;20467;-71
2022/10/07 04:35:24;;;;;;;8.60;3.57;;;;;;;8.96;100.00;102362.91;5008396;28;20897;-71
2022/10/07 04:37:50;;;;;;;8.27;3.40;;;;;;;8.68;100.00;102289.00;4997759;28;20456;-72
2022/10/07 04:40:18;;;;;;;15.97;5.33;;;;;;;9.17;100.00;102384.06;5002048;28;20197;-72
2022/10/07 04:45:27;;;;;;;9.10;3.50;;;;;;;9.01;100.00;102360.63;5007880;28;20470;-72
2022/10/07 04:47:53;;;;;;;10.13;4.60;;;;;;;8.55;100.00;102268.81;4996314;28;20443;-72
2022/10/07 04:50:21;;;;;;;16.40;4.50;;;;;;;9.24;100.00;102368.22;5002855;28;20748;-72
2022/10/07 04:52:46;;;;;;;12.30;4.30;;;;;;;9.05;100.00;102353.13;4996287;28;20213;-73
2022/10/07 04:55:13;;;;;;;14.03;4.10;;;;;;;8.68;100.00;102294.34;5004100;28;20451;-73
2022/10/07 04:57:39;;;;;;;13.77;3.87;;;;;;;9.15;100.00;102371.81;5004640;28;20177;-73
2022/10/07 05:00:06;;;;;;;13.10;4.40;;;;;;;9.04;100.00;102351.44;5006605;28;21061;-72
2022/10/07 05:02:32;;;;;;;14.40;4.57;;;;;;;9.17;100.00;102359.97;5000341;28;20448;-74
2022/10/07 05:04:58;;;;;;;20.53;6.63;;;;;;;8.94;100.00;102361.34;4999576;28;20446;-72
2022/10/07 05:07:24;;;;;;;12.60;4.13;;;;;;;9.08;100.00;102387.63;4995142;28;20567;-72
2022/10/07 05:09:52;;;;;;;15.57;5.67;;;;;;;9.02;100.00;102348.91;4998656;28;20443;-73
2022/10/07 05:19:32;;;;;;;18.03;4.90;;;;;;;8.67;100.00;102277.47;5041434;28;20855;-71
2022/10/07 05:22:03;;;;;;;11.43;5.03;;;;;;;8.72;100.00;102301.09;5029736;28;20450;-70
2022/10/07 05:27:03;;;;;;;13.80;4.10;;;;;;;9.03;100.00;102363.16;5070578;23;20553;-76
2022/10/07 05:29:29;;;;;;;13.20;4.50;;;;;;;7.53;100.00;102134.47;5050670;28;20939;-76
2022/10/07 05:31:54;;;;;;;23.00;4.50;;;;;;;8.36;100.00;102260.88;5069795;28;20735;-76
2022/10/07 05:34:20;;;;;;;12.87;4.03;;;;;;;7.61;100.00;102145.25;5066393;28;20178;-76
2022/10/07 05:36:46;;;;;;;11.27;3.73;;;;;;;7.66;100.00;102122.44;5063490;28;20658;-76
2022/10/07 05:39:11;;;;;;;14.07;4.63;;;;;;;7.50;100.00;102137.44;5051260;28;20268;-76
2022/10/07 05:41:38;;;;;;;13.53;4.37;;;;;;;7.42;100.00;102103.47;5064367;28;20470;-75
2022/10/07 05:44:04;;;;;;;15.33;4.40;;;;;;;8.24;100.00;102217.47;5057047;28;20658;-76
2022/10/07 05:46:29;;;;;;;16.13;4.73;;;;;;;8.75;100.00;102327.56;5070985;28;20455;-75
2022/10/07 05:48:55;;;;;;;17.20;4.87;;;;;;;7.54;100.00;102150.34;5057164;28;20448;-75
2022/10/07 05:51:22;;;;;;;17.67;4.73;;;;;;;9.19;100.00;102371.34;5053227;22;20240;-74
2022/10/07 05:53:48;;;;;;;12.53;4.60;;;;;;;8.81;100.00;102327.78;5032139;28;20197;-75
2022/10/07 05:56:16;;;;;;;16.30;4.70;;;;;;;9.13;100.00;102369.28;5034101;28;20437;-75
2022/10/07 05:58:41;;;;;;;16.27;5.00;;;;;;;8.35;100.00;102252.03;5032832;28;20205;-74
2022/10/07 06:01:13;;;;;;;21.53;7.10;;;;;;;8.89;100.00;102318.19;5024824;28;20456;-75
2022/10/07 06:03:38;;;;;;;14.50;5.10;;;;;;;7.43;100.00;102095.31;5002775;28;20181;-75
2022/10/07 06:06:04;;;;;;;16.07;6.00;;;;;;;8.71;100.00;102286.91;5017836;28;20918;-75
2022/10/07 06:08:30;;;;;;;13.53;5.40;;;;;;;7.13;100.00;102071.53;5020984;28;20233;-75
2022/10/07 06:13:53;;;;;;;15.30;5.17;;;;;;;6.93;100.00;101972.06;5024197;28;20714;-75
2022/10/07 06:16:19;;;;;;;17.47;4.80;;;;;;;6.44;100.00;101945.56;5021068;28;20447;-76
2022/10/07 06:18:46;;;;;;;14.43;3.87;;;;;;;7.95;100.00;102184.72;5024280;28;20467;-76
2022/10/07 06:21:12;;;;;;;14.13;4.90;;;;;;;6.54;100.00;101909.09;5023011;28;20451;-75
2022/10/07 06:23:38;;;;;;;14.17;4.77;;;;;;;6.97;100.00;102016.13;5024194;28;20454;-76
2022/10/07 06:26:09;;;;;;;15.30;4.97;;;;;;;8.21;100.00;102161.63;5023455;28;20430;-75
2022/10/07 06:28:39;;;;;;;14.33;4.77;;;;;;;6.79;100.00;101936.06;5021191;28;20181;-76
2022/10/07 06:31:06;;;;;;;19.07;4.77;;;;;;;8.52;100.00;102230.84;5022216;28;20514;-75
2022/10/07 06:33:32;;;;;;;16.10;5.03;;;;;;;6.84;100.00;101927.63;5019929;28;20450;-75
2022/10/07 06:36:01;;;;;;;20.60;4.57;;;;;;;8.48;100.00;102213.44;5021303;28;20436;-76
2022/10/07 06:38:26;;;;;;;14.70;3.90;;;;;;;8.16;100.00;102188.00;5023131;28;20575;-74
2022/10/07 06:41:00;;;;;;;14.67;4.40;;;;;;;8.60;100.00;102221.06;5003807;28;20459;-74
2022/10/07 06:43:26;;;;;;;10.30;3.50;;;;;;;7.96;100.00;102135.66;5023492;28;20774;-76
2022/10/07 06:45:57;;;;;;;15.73;5.47;;;;;;;7.48;100.00;102050.31;5017932;28;20519;-75
2022/10/07 06:48:23;;;;;;;17.70;4.07;;;;;;;6.55;100.00;101885.94;5020581;28;20438;-77
2022/10/07 06:50:50;;;;;;;12.20;4.33;;;;;;;8.55;100.00;102185.09;5019716;28;21045;-75
2022/10/07 06:53:15;;;;;;;11.80;4.67;;;;;;;8.30;100.00;102135.84;5021821;28;20189;-75
2022/10/07 06:55:41;;;;;;;13.93;5.10;;;;;;;8.17;100.00;102162.94;5021942;28;20442;-76
2022/10/07 06:58:06;;;;;;;11.93;3.57;;;;;;;6.75;100.00;101903.50;5020453;28;20196;-74
2022/10/07 07:00:32;;;;;;;13.73;4.30;;;;;;;9.17;100.00;102276.97;5007133;28;20282;-74
2022/10/07 07:03:00;;;;;;;14.90;4.73;;;;;;;7.79;100.00;102057.16;5022832;28;20192;-77
2022/10/07 07:05:31;;;;;;;21.40;4.73;;;;;;;8.15;100.00;102123.00;5021649;28;20211;-75
2022/10/07 07:07:57;;;;;;;10.13;3.50;;;;;;;7.86;100.00;102051.06;5004667;28;20958;-75
2022/10/07 07:10:23;;;;;;;16.50;4.90;;;;;;;7.01;100.00;101916.16;5022604;28;20444;-75
2022/10/07 07:12:52;;;;;;;16.13;4.23;;;;;;;9.10;100.00;102238.41;5006485;28;20522;-75
2022/10/07 07:15:18;;;;;;;12.20;4.20;;;;;;;10.07;100.00;102370.56;5003827;28;20192;-74
2022/10/07 07:17:43;;;;;;;15.03;4.60;;;;;;;7.63;100.00;102010.59;5021079;28;20790;-75
2022/10/07 07:20:09;;;;;;;12.33;3.83;;;;;;;8.16;100.00;102118.50;5005327;28;20208;-75
2022/10/07 07:22:34;;;;;;;24.07;5.13;;;;;;;9.47;100.00;102329.25;5022621;28;20542;-74
2022/10/07 07:25:00;;;;;;;12.40;4.10;;;;;;;9.41;100.00;102254.88;5021259;28;20207;-74
2022/10/07 07:27:25;;;;;;;13.13;4.40;;;;;;;9.70;100.00;102336.81;5022051;28;20575;-78
2022/10/07 07:29:51;;;;;;;18.33;4.80;;;;;;;6.81;100.00;101888.75;5021331;28;20188;-78
2022/10/07 07:32:16;;;;;;;18.03;5.47;;;;;;;7.55;100.00;101982.97;5022283;28;20268;-75
2022/10/07 07:34:42;;;;;;;13.50;4.43;;;;;;;8.47;100.00;102062.81;5016814;28;20530;-75
2022/10/07 07:37:07;;;;;;;11.50;3.73;;;;;;;8.75;100.00;102102.84;5016485;28;20238;-75
2022/10/07 07:39:33;;;;;;;13.83;5.07;;;;;;;7.92;100.00;101948.09;5020196;28;20208;-75
2022/10/07 07:41:58;;;;;;;21.17;5.67;;;;;;;8.79;100.00;102077.44;5020257;28;20204;-77
2022/10/07 07:44:24;;;;;;;17.10;4.90;;;;;;;9.71;100.00;102248.22;5021120;28;20192;-75
2022/10/07 07:46:53;;;;;;;20.03;3.90;;;;;;;7.96;100.00;101941.47;5020675;28;20569;-75
2022/10/07 07:49:20;;;;;;;13.07;5.10;;;;;;;8.06;100.00;101978.78;5004975;28;20274;-76
2022/10/07 07:51:45;;;;;;;18.20;4.30;;;;;;;10.12;100.00;102295.81;5019905;28;20912;-75
2022/10/07 07:54:11;;;;;;;19.40;5.50;;;;;;;8.16;100.00;101968.84;5004193;28;20431;-75
2022/10/07 07:56:37;;;;;;;13.77;4.20;;;;;;;8.21;100.00;101998.59;5021000;28;20184;-75
2022/10/07 07:59:05;;;;;;;13.90;5.30;;;;;;;8.95;100.00;102103.47;5018755;28;20468;-75
2022/10/07 08:01:31;;;;;;;18.57;4.90;;;;;;;8.17;100.00;101954.47;5011152;28;20695;-75
2022/10/07 08:03:57;;;;;;;14.87;5.00;;;;;;;10.01;100.00;102213.00;5019568;28;20431;-77
2022/10/07 08:06:23;;;;;;;15.73;5.57;;;;;;;8.60;100.00;101993.75;5021102;28;20566;-76
2022/10/07 08:08:48;;;;;;;12.13;5.10;;;;;;;10.95;100.00;102340.75;5022804;28;20431;-75
2022/10/07 08:11:19;;;;;;;13.63;4.97;;;;;;;10.17;100.00;102176.38;5021471;28;20508;-75
2022/10/07 08:13:45;;;;;;;15.30;4.90;;;;;;;9.37;100.00;102074.09;5023254;28;20192;-76
2022/10/07 08:16:13;;;;;;;16.40;5.37;;;;;;;9.12;100.00;101955.38;5018069;28;20466;-76
2022/10/07 08:18:42;;;;;;;16.40;4.17;;;;;;;10.46;100.00;102180.50;5020185;28;20480;-75
2022/10/07 08:21:09;;;;;;;15.73;4.37;;;;;;;8.97;100.00;101973.88;5020248;28;20443;-76
2022/10/07 08:23:35;;;;;;;17.57;4.70;;;;;;;9.09;100.00;101933.44;5021257;28;20441;-76
2022/10/07 08:26:02;;;;;;;14.97;4.10;;;;;;;9.72;100.00;102065.03;5004721;28;21119;-75
2022/10/07 08:28:27;;;;;;;14.60;4.20;;;;;;;9.05;100.00;101908.81;5019240;28;20424;-75
2022/10/07 08:30:54;;;;;;;15.70;4.87;;;;;;;10.65;100.00;102146.31;5019951;28;20451;-76
2022/10/07 08:33:20;;;;;;;12.70;4.30;;;;;;;9.27;100.00;101902.03;5018344;28;20197;-75
2022/10/07 08:36:00;;;;;;;19.13;5.93;;;;;;;9.68;100.00;101969.91;5019534;28;20439;-75
2022/10/07 08:38:33;;;;;;;20.03;5.13;;;;;;;11.96;100.00;102330.53;5020498;28;20490;-75
2022/10/07 08:41:12;;;;;;;22.57;6.20;;;;;;;9.37;100.00;101872.44;5018253;28;20558;-75
2022/10/07 08:43:48;;;;;;;16.07;5.93;;;;;;;9.79;100.00;101960.72;5020010;28;20419;-76
2022/10/07 08:46:18;;;;;;;16.37;5.83;;;;;;;9.66;100.00;101896.06;5020384;28;20422;-75
2022/10/07 08:48:51;;;;;;;17.03;5.53;;;;;;;9.65;100.00;101897.06;5017909;28;20462;-76
2022/10/07 08:51:53;;;;;;;14.73;4.90;;;;;;;11.62;100.00;102204.41;5020329;28;20465;-76
2022/10/07 08:54:24;;;;;;;16.50;4.30;;;;;;;10.07;100.00;101902.25;5020792;28;20423;-75
2022/10/07 08:56:50;;;;;;;16.63;6.43;;;;;;;12.01;100.00;102205.50;5018804;28;20511;-76
2022/10/07 08:59:27;;;;;;;24.43;6.70;;;;;;;10.45;100.00;101964.22;5021850;28;20550;-75
2022/10/07 09:02:47;;;;;;;13.50;4.90;;;;;;;12.70;100.00;102254.03;5021439;28;20574;-76
2022/10/07 09:05:26;;;;;;;31.07;7.27;;;;;;;11.67;100.00;102145.63;4948188;28;20449;-76
2022/10/07 09:07:58;;;;;;;21.80;4.53;;;;;;;10.55;100.00;101908.53;5012695;28;20430;-76
2022/10/07 09:10:33;;;;;;;12.67;4.87;;;;;;;12.91;100.00;102237.25;5020291;28;20942;-75
2022/10/07 09:13:12;;;;;;;17.23;4.37;;;;;;;11.17;100.00;102001.75;5021093;28;20423;-76
2022/10/07 09:15:48;;;;;;;17.87;6.17;;;;;;;11.96;100.00;102085.03;5021335;28;20451;-75
2022/10/07 09:18:23;;;;;;;17.27;3.57;;;;;;;13.15;100.00;102231.66;5020122;28;20419;-75
2022/10/07 09:20:54;;;;;;;15.57;3.50;;;;;;;10.69;100.00;101826.47;5016116;28;20471;-75
2022/10/07 09:23:23;;;;;;;13.80;3.57;;;;;;;10.34;100.00;101795.63;5019078;28;20527;-76
2022/10/07 09:25:50;;;;;;;12.70;3.90;;;;;;;11.74;100.00;102004.16;5019473;28;20423;-75
2022/10/07 09:28:19;;;;;;;15.20;3.70;;;;;;;10.69;100.00;101791.59;5020586;28;20416;-76
2022/10/07 09:30:45;;;;;;;15.67;4.47;;;;;;;11.88;100.00;101996.34;5020360;28;20538;-76
2022/10/07 09:33:17;;;;;;;19.30;4.23;;;;;;;12.22;100.00;102028.19;5018401;28;20526;-76
2022/10/07 09:35:55;;;;;;;9.90;3.20;;;;;;;11.72;100.00;101927.41;5018544;28;20192;-75
2022/10/07 09:38:35;;;;;;;12.30;3.50;;;;;;;10.90;100.00;101806.25;5005447;28;20463;-75
2022/10/07 09:41:23;;;;;;;13.93;3.30;;;;;;;12.05;100.00;101978.25;5018561;28;20445;-75
2022/10/07 09:44:06;;;;;;;11.80;3.40;;;;;;;12.17;100.00;101971.41;5020588;28;20442;-76
2022/10/07 09:47:27;;;;;;;13.17;3.30;;;;;;;13.15;100.00;102099.66;5021434;28;20427;-76
2022/10/07 09:49:58;;;;;;;13.53;3.07;;;;;;;12.03;100.00;101939.94;4963789;28;20437;-75
2022/10/07 09:52:28;;;;;;;16.60;3.30;;;;;;;12.29;100.00;101951.09;5020401;28;20470;-75
2022/10/07 09:55:14;;;;;;;11.30;3.40;;;;;;;11.79;100.00;101831.56;5022399;28;20439;-76
2022/10/07 09:57:40;;;;;;;15.13;3.47;;;;;;;11.37;100.00;101778.38;5024942;28;20441;-75
2022/10/07 10:00:11;;;;;;;11.03;3.37;;;;;;;13.97;100.00;102180.44;5010466;28;21443;-76
2022/10/07 10:02:39;;;;;;;16.07;3.40;;;;;;;12.34;100.00;101919.13;5016195;28;20184;-76
2022/10/07 10:05:05;;;;;;;15.13;3.13;;;;;;;11.28;100.00;101726.56;5022642;28;20423;-76
2022/10/07 10:07:35;;;;;;;15.80;3.90;;;;;;;13.26;100.00;102021.09;5011834;28;20462;-77
2022/10/07 10:10:33;;;;;;;13.17;3.00;;;;;;;14.20;100.00;102158.72;5020996;28;20459;-77
2022/10/07 10:13:01;;;;;;;18.50;3.73;;;;;;;13.45;100.00;102053.84;5016696;28;20683;-76
2022/10/07 10:15:40;;;;;;;14.57;3.30;;;;;;;13.94;100.00;102082.84;5024161;28;20422;-76
2022/10/07 10:18:30;;;;;;;14.00;3.27;;;;;;;13.55;100.00;102030.97;5022681;28;20420;-77
2022/10/07 10:21:14;;;;;;;16.40;3.70;;;;;;;13.65;100.00;101981.31;5022968;28;20447;-76
2022/10/07 10:23:45;;;;;;;14.23;3.30;;;;;;;12.55;100.00;101834.13;5023476;28;20410;-76
2022/10/07 10:26:25;;;;;;;15.63;4.60;;;;;;;14.89;100.00;102138.41;5023016;28;20803;-76
2022/10/07 10:29:03;;;;;;;14.10;3.33;;;;;;;14.61;100.00;102132.94;5019825;28;20427;-76
2022/10/07 10:31:52;;;;;;;15.20;3.60;;;;;;;14.73;100.00;102133.28;5024358;28;20446;-76
2022/10/07 10:34:29;;;;;;;15.40;3.20;;;;;;;12.62;100.00;101790.13;5021980;28;21081;-76
2022/10/07 10:37:20;;;;;;;23.97;3.70;;;;;;;14.73;100.00;102119.78;5022789;28;20429;-76
2022/10/07 10:40:25;;;;;;;9.67;2.87;;;;;;;15.07;100.00;102116.28;5012186;28;20474;-76
2022/10/07 10:43:06;;;;;;;13.33;3.27;;;;;;;13.11;100.00;101797.50;5006465;28;21005;-76
2022/10/07 10:45:50;;;;;;;16.13;4.03;;;;;;;14.38;100.00;101936.94;5019855;28;20435;-76
2022/10/07 10:48:34;;;;;;;43.80;4.80;;;;;;;15.13;100.00;102123.63;5022156;28;20431;-76
2022/10/07 10:51:15;;;;;;;29.17;4.60;;;;;;;12.85;100.00;101676.06;5021813;28;20570;-76
2022/10/07 10:53:47;;;;;;;14.70;2.83;;;;;;;15.39;100.00;102090.50;5023732;28;20869;-76
2022/10/07 10:56:21;;;;;;;21.53;6.00;;;;;;;15.80;100.00;102087.78;5006524;28;20860;-76
2022/10/07 10:58:57;;;;;;;14.13;4.50;;;;;;;15.79;100.00;102085.28;5022608;28;21057;-76
2022/10/07 11:01:35;;;;;;;16.17;3.60;;;;;;;15.80;100.00;102103.19;5022105;28;20435;-75
2022/10/07 11:04:16;;;;;;;12.47;3.93;;;;;;;15.97;100.00;102063.91;5019069;28;20961;-74
2022/10/07 11:06:45;;;;;;;17.50;4.00;;;;;;;13.27;100.00;101656.31;5021367;28;20507;-75
2022/10/07 11:09:18;;;;;;;15.33;3.93;;;;;;;14.31;100.00;101846.97;5021052;28;20424;-75
2022/10/07 11:11:44;;;;;;;13.20;3.57;;;;;;;13.80;100.00;101747.50;5022084;28;20629;-75
2022/10/07 11:14:19;;;;;;;11.13;2.90;;;;;;;15.03;100.00;101915.91;5022106;28;20563;-75
2022/10/07 11:16:53;;;;;;;17.00;3.87;;;;;;;14.20;100.00;101736.91;5022821;28;20303;-74
2022/10/07 11:19:18;;;;;;;17.27;3.83;;;;;;;16.21;100.00;102037.28;5022794;28;20454;-75
2022/10/07 11:21:47;;;;;;;9.80;2.40;;;;;;;15.65;100.00;101951.00;5019755;28;20895;-75
2022/10/07 11:24:22;;;;;;;9.80;2.80;;;;;;;14.87;100.00;101781.22;5021889;28;20187;-74
2022/10/07 11:26:59;;;;;;;15.47;3.30;;;;;;;14.17;100.00;101654.50;5020489;28;20423;-76
2022/10/07 11:29:47;;;;;;;11.80;3.60;;;;;;;16.65;100.00;102046.66;5018880;28;20428;-75
2022/10/07 11:32:16;;;;;;;16.93;2.90;;;;;;;16.84;100.00;102015.22;5018006;28;20928;-74
2022/10/07 11:35:03;;;;;;;12.87;3.00;;;;;;;16.81;100.00;102034.59;5020880;28;20514;-74
2022/10/07 11:37:42;;;;;;;10.87;2.77;;;;;;;15.28;100.00;101804.56;5022895;28;20430;-75
2022/10/07 11:40:07;;;;;;;15.90;2.73;;;;;;;15.26;100.00;101731.78;5021116;28;20479;-75
2022/10/07 11:42:41;;;;;;;10.80;2.77;;;;;;;15.07;100.00;101695.63;5014241;28;20447;-74
2022/10/07 11:45:12;;;;;;;9.83;2.40;;;;;;;15.07;100.00;101674.00;5001845;28;20740;-75
2022/10/07 11:47:52;;;;;;;16.30;3.43;;;;;;;15.30;100.00;101721.38;5017734;28;20440;-75
2022/10/07 11:50:23;;;;;;;10.37;2.43;;;;;;;15.17;100.00;101672.75;5021081;28;20573;-75